Terminal Aerodrome Forecast
Issued by NWS

Home | Current Version | Previous Version | Text Only | Print | Product List | Glossary On
Versions: 1 2 3 4 5 6 7 8 9 10 11 12 13 14 15 16 17
000
FTAK31 PAJN 301739
TAFASI
TAF
PASI 301739Z 3018/0118 13020G30KT 6SM -RA BR BKN035 OVC045
     FM302000 13025G35KT 5SM RA BR BKN030 OVC040
     FM010000 14015G25KT 6SM -RA BR BKN020 OVC030
     FM010600 15012KT P6SM -SHRA BKN025 OVC040
     FM011200 14007KT P6SM -SHRA BKN025 OVC040=

USA.gov is the U.S. government's official web portal to all federal, state and local government web resources and services.